GEC8401 OPLA-OMSJ
Flight info
| Callsign | GEC8401 |
|---|---|
| Flight time | 2h 40m |
| Altitude | 32000 |
| Route | VEREN J166 NITIV G214 PG T385 TAPDO A454 VUSET N571 MENSA/N0395F160 N317 NOLSU |
| Aircraft | MD11/H-SDE1E2E3FGHIJ2J3J4J5M1RWXY/LB1D1 |
Departure
| Time | 2026-04-26 09:54 |
|---|---|
| Airport | Allama Iqbal International Airport (OPLA) |
Arrival
| Time | 2026-04-26 12:34 |
|---|---|
| Airport | Sharjah International Airport (OMSJ) |
| Time | Latitude | Longitude | Altitude | Speed | Heading |
|---|---|---|---|---|---|
| 2026-04-26 09:30 | 31.51763 | 74.40935 | 723 ft | 0 kts | 91° |
| 2026-04-26 09:43 | 31.51763 | 74.40914 | 723 ft | 4 kts | 85° |
| 2026-04-26 09:43 | 31.51761 | 74.40883 | 723 ft | 4 kts | 92° |
| 2026-04-26 09:44 | 31.51765 | 74.40858 | 724 ft | 2 kts | 125° |
| 2026-04-26 09:44 | 31.51777 | 74.40841 | 724 ft | 4 kts | 164° |
| 2026-04-26 09:44 | 31.51803 | 74.40837 | 724 ft | 4 kts | 180° |
| 2026-04-26 09:44 | 31.51810 | 74.40837 | 724 ft | 0 kts | 180° |
| 2026-04-26 09:49 | 31.51796 | 74.40837 | 725 ft | 5 kts | 180° |
| 2026-04-26 09:49 | 31.51740 | 74.40828 | 725 ft | 11 kts | 201° |
| 2026-04-26 09:49 | 31.51709 | 74.40747 | 725 ft | 12 kts | 266° |
| 2026-04-26 09:49 | 31.51673 | 74.40676 | 724 ft | 10 kts | 208° |
| 2026-04-26 09:50 | 31.51595 | 74.40659 | 725 ft | 13 kts | 182° |
| 2026-04-26 09:50 | 31.51493 | 74.40656 | 725 ft | 16 kts | 179° |
| 2026-04-26 09:50 | 31.51370 | 74.40657 | 727 ft | 19 kts | 179° |
| 2026-04-26 09:50 | 31.51227 | 74.40657 | 726 ft | 21 kts | 182° |
| 2026-04-26 09:51 | 31.51074 | 74.40651 | 723 ft | 22 kts | 181° |
| 2026-04-26 09:51 | 31.50931 | 74.40648 | 724 ft | 19 kts | 181° |
| 2026-04-26 09:51 | 31.50809 | 74.40640 | 723 ft | 16 kts | 192° |
| 2026-04-26 09:51 | 31.50723 | 74.40585 | 726 ft | 13 kts | 220° |
| 2026-04-26 09:52 | 31.50673 | 74.40520 | 724 ft | 9 kts | 241° |
| 2026-04-26 09:52 | 31.50693 | 74.40436 | 722 ft | 5 kts | 334° |
| 2026-04-26 09:52 | 31.50732 | 74.40434 | 724 ft | 9 kts | 360° |
| 2026-04-26 09:53 | 31.50954 | 74.40436 | 723 ft | 67 kts | 1° |
| 2026-04-26 09:53 | 31.51663 | 74.40442 | 726 ft | 137 kts | 2° |
| 2026-04-26 09:53 | 31.52807 | 74.40446 | 740 ft | 186 kts | 359° |
| 2026-04-26 09:53 | 31.54153 | 74.40451 | 1179 ft | 198 kts | 359° |
| 2026-04-26 09:54 | 31.55465 | 74.40470 | 2118 ft | 183 kts | 359° |
| 2026-04-26 09:54 | 31.56779 | 74.40457 | 2697 ft | 187 kts | 349° |
| 2026-04-26 09:54 | 31.58030 | 74.40127 | 3329 ft | 184 kts | 334° |
| 2026-04-26 09:54 | 31.59122 | 74.39379 | 3919 ft | 184 kts | 318° |
| 2026-04-26 09:55 | 31.60014 | 74.38184 | 4091 ft | 206 kts | 300° |
| 2026-04-26 09:55 | 31.60524 | 74.36565 | 4304 ft | 226 kts | 281° |
| 2026-04-26 09:55 | 31.60466 | 74.34662 | 4431 ft | 244 kts | 257° |
| 2026-04-26 09:55 | 31.59794 | 74.32755 | 4551 ft | 266 kts | 244° |
| 2026-04-26 09:56 | 31.58867 | 74.30765 | 4991 ft | 282 kts | 242° |
| 2026-04-26 09:56 | 31.57886 | 74.28751 | 5850 ft | 286 kts | 242° |
| 2026-04-26 09:56 | 31.56894 | 74.26723 | 6714 ft | 289 kts | 242° |
| 2026-04-26 09:56 | 31.55893 | 74.24670 | 7544 ft | 290 kts | 243° |
| 2026-04-26 09:57 | 31.54890 | 74.22608 | 8371 ft | 292 kts | 243° |
| 2026-04-26 09:57 | 31.53881 | 74.20529 | 9174 ft | 294 kts | 243° |
| 2026-04-26 09:57 | 31.52781 | 74.18530 | 9936 ft | 299 kts | 234° |
| 2026-04-26 09:57 | 31.51245 | 74.16791 | 10246 ft | 322 kts | 217° |
| 2026-04-26 09:58 | 31.49215 | 74.15443 | 10392 ft | 349 kts | 208° |
| 2026-04-26 09:58 | 31.46937 | 74.14228 | 10679 ft | 367 kts | 206° |
| 2026-04-26 09:58 | 31.44577 | 74.13039 | 11395 ft | 371 kts | 206° |
| 2026-04-26 09:58 | 31.42194 | 74.11836 | 12102 ft | 376 kts | 206° |
| 2026-04-26 09:59 | 31.39786 | 74.10601 | 12775 ft | 380 kts | 206° |
| 2026-04-26 09:59 | 31.37389 | 74.09352 | 13438 ft | 384 kts | 206° |
| 2026-04-26 09:59 | 31.34938 | 74.08063 | 14038 ft | 388 kts | 207° |
| 2026-04-26 09:59 | 31.32468 | 74.06757 | 14640 ft | 391 kts | 207° |
| 2026-04-26 10:00 | 31.29978 | 74.05436 | 15202 ft | 395 kts | 207° |
| 2026-04-26 10:00 | 31.27469 | 74.04104 | 15775 ft | 398 kts | 207° |
| 2026-04-26 10:00 | 31.25002 | 74.02637 | 16284 ft | 397 kts | 217° |
| 2026-04-26 10:00 | 31.22884 | 74.00596 | 16829 ft | 395 kts | 228° |
| 2026-04-26 10:01 | 31.21029 | 73.98220 | 17376 ft | 396 kts | 233° |
| 2026-04-26 10:01 | 31.19270 | 73.95727 | 17897 ft | 399 kts | 234° |
| 2026-04-26 10:01 | 31.17523 | 73.93202 | 18367 ft | 402 kts | 234° |
| 2026-04-26 10:01 | 31.15750 | 73.90665 | 18818 ft | 404 kts | 233° |
| 2026-04-26 10:02 | 31.13950 | 73.88126 | 19260 ft | 407 kts | 233° |
| 2026-04-26 10:02 | 31.12151 | 73.85621 | 19681 ft | 410 kts | 233° |
| 2026-04-26 10:02 | 31.10306 | 73.83075 | 20096 ft | 412 kts | 232° |
| 2026-04-26 10:02 | 31.08445 | 73.80518 | 20536 ft | 415 kts | 232° |
| 2026-04-26 10:03 | 31.06567 | 73.77944 | 20963 ft | 417 kts | 232° |
| 2026-04-26 10:03 | 31.04679 | 73.75361 | 21415 ft | 420 kts | 232° |
| 2026-04-26 10:03 | 31.02780 | 73.72764 | 21831 ft | 423 kts | 233° |
| 2026-04-26 10:03 | 31.00865 | 73.70147 | 22294 ft | 425 kts | 232° |
| 2026-04-26 10:04 | 30.98940 | 73.67518 | 22741 ft | 428 kts | 232° |
| 2026-04-26 10:04 | 30.97002 | 73.64872 | 23183 ft | 431 kts | 232° |
| 2026-04-26 10:04 | 30.95052 | 73.62212 | 23580 ft | 434 kts | 232° |
| 2026-04-26 10:04 | 30.93085 | 73.59531 | 23964 ft | 437 kts | 232° |
| 2026-04-26 10:05 | 30.91132 | 73.56870 | 24349 ft | 439 kts | 232° |
| 2026-04-26 10:05 | 30.89140 | 73.54159 | 24730 ft | 442 kts | 232° |
| 2026-04-26 10:05 | 30.87135 | 73.51431 | 25125 ft | 445 kts | 232° |
| 2026-04-26 10:05 | 30.85111 | 73.48679 | 25522 ft | 448 kts | 232° |
| 2026-04-26 10:06 | 30.83078 | 73.45918 | 25921 ft | 451 kts | 232° |
| 2026-04-26 10:06 | 30.81025 | 73.43131 | 26303 ft | 454 kts | 232° |
| 2026-04-26 10:06 | 30.78967 | 73.40339 | 26685 ft | 457 kts | 232° |
| 2026-04-26 10:06 | 30.76891 | 73.37525 | 27057 ft | 460 kts | 232° |
| 2026-04-26 10:07 | 30.74799 | 73.34691 | 27433 ft | 463 kts | 232° |
| 2026-04-26 10:07 | 30.72691 | 73.31839 | 27801 ft | 466 kts | 232° |
| 2026-04-26 10:07 | 30.70702 | 73.28865 | 28120 ft | 464 kts | 241° |
| 2026-04-26 10:07 | 30.69164 | 73.25633 | 28432 ft | 465 kts | 247° |
| 2026-04-26 10:08 | 30.67789 | 73.22221 | 28786 ft | 467 kts | 248° |
| 2026-04-26 10:08 | 30.66432 | 73.18777 | 29121 ft | 470 kts | 248° |
| 2026-04-26 10:08 | 30.65028 | 73.15342 | 29490 ft | 473 kts | 247° |
| 2026-04-26 10:08 | 30.63563 | 73.11919 | 29931 ft | 473 kts | 246° |
| 2026-04-26 10:09 | 30.62062 | 73.08526 | 30335 ft | 472 kts | 245° |
| 2026-04-26 10:09 | 30.60543 | 73.05159 | 30681 ft | 471 kts | 245° |
| 2026-04-26 10:09 | 30.59015 | 73.01805 | 31048 ft | 469 kts | 245° |
| 2026-04-26 10:09 | 30.57489 | 72.98467 | 31409 ft | 467 kts | 245° |
| 2026-04-26 10:10 | 30.55966 | 72.95137 | 31655 ft | 468 kts | 245° |
| 2026-04-26 10:10 | 30.54446 | 72.91811 | 31703 ft | 467 kts | 245° |
| 2026-04-26 10:10 | 30.51414 | 72.85173 | 31730 ft | 470 kts | 245° |
| 2026-04-26 10:11 | 30.48351 | 72.78477 | 31727 ft | 470 kts | 245° |
| 2026-04-26 10:11 | 30.45284 | 72.71785 | 31719 ft | 470 kts | 245° |
| 2026-04-26 10:12 | 30.42215 | 72.65100 | 31716 ft | 470 kts | 245° |
| 2026-04-26 10:12 | 30.39160 | 72.58456 | 31713 ft | 469 kts | 244° |
| 2026-04-26 10:13 | 30.36093 | 72.51797 | 31716 ft | 468 kts | 244° |
| 2026-04-26 10:13 | 30.33018 | 72.45148 | 31716 ft | 468 kts | 244° |
| 2026-04-26 10:14 | 30.29929 | 72.38517 | 31702 ft | 468 kts | 244° |
| 2026-04-26 10:14 | 30.26846 | 72.31880 | 31709 ft | 468 kts | 244° |
| 2026-04-26 10:15 | 30.23767 | 72.25245 | 31704 ft | 468 kts | 244° |
| 2026-04-26 10:15 | 30.20710 | 72.18665 | 31709 ft | 467 kts | 244° |
| 2026-04-26 10:16 | 30.17636 | 72.12060 | 31706 ft | 467 kts | 244° |
| 2026-04-26 10:16 | 30.14557 | 72.05457 | 31702 ft | 467 kts | 244° |
| 2026-04-26 10:17 | 30.11476 | 71.98859 | 31702 ft | 467 kts | 244° |
| 2026-04-26 10:17 | 30.08412 | 71.92310 | 31700 ft | 467 kts | 244° |
| 2026-04-26 10:18 | 30.05330 | 71.85732 | 31699 ft | 466 kts | 244° |
| 2026-04-26 10:18 | 30.02244 | 71.79158 | 31695 ft | 465 kts | 244° |
| 2026-04-26 10:19 | 29.99158 | 71.72595 | 31696 ft | 465 kts | 244° |
| 2026-04-26 10:19 | 29.96070 | 71.66039 | 31700 ft | 465 kts | 244° |
| 2026-04-26 10:20 | 29.93493 | 71.60590 | 31702 ft | 465 kts | 243° |
| 2026-04-26 10:20 | 29.89873 | 71.52982 | 31696 ft | 466 kts | 243° |
| 2026-04-26 10:21 | 29.86760 | 71.46424 | 31700 ft | 467 kts | 243° |
| 2026-04-26 10:21 | 29.83648 | 71.39862 | 31695 ft | 467 kts | 243° |
| 2026-04-26 10:22 | 29.80532 | 71.33300 | 31688 ft | 467 kts | 243° |
| 2026-04-26 10:22 | 29.77434 | 71.26788 | 31691 ft | 467 kts | 243° |
| 2026-04-26 10:23 | 29.74312 | 71.20237 | 31699 ft | 467 kts | 243° |
| 2026-04-26 10:23 | 29.71188 | 71.13691 | 31690 ft | 467 kts | 243° |
| 2026-04-26 10:24 | 29.68059 | 71.07147 | 31690 ft | 467 kts | 243° |
| 2026-04-26 10:24 | 29.64927 | 71.00608 | 31700 ft | 467 kts | 243° |
| 2026-04-26 10:25 | 29.61813 | 70.94115 | 31698 ft | 467 kts | 243° |
| 2026-04-26 10:25 | 29.58678 | 70.87590 | 31691 ft | 467 kts | 243° |
| 2026-04-26 10:26 | 29.55539 | 70.81067 | 31692 ft | 467 kts | 243° |
| 2026-04-26 10:26 | 29.52382 | 70.74549 | 31684 ft | 467 kts | 243° |
| 2026-04-26 10:27 | 29.49217 | 70.68033 | 31688 ft | 467 kts | 243° |
| 2026-04-26 10:27 | 29.46083 | 70.61568 | 31689 ft | 467 kts | 243° |
| 2026-04-26 10:28 | 29.42923 | 70.55047 | 31691 ft | 467 kts | 243° |
| 2026-04-26 10:28 | 29.39766 | 70.48540 | 31691 ft | 467 kts | 243° |
| 2026-04-26 10:29 | 29.36604 | 70.42032 | 31688 ft | 467 kts | 243° |
| 2026-04-26 10:29 | 29.33441 | 70.35536 | 31691 ft | 467 kts | 243° |
| 2026-04-26 10:30 | 29.30294 | 70.29082 | 31698 ft | 467 kts | 243° |
| 2026-04-26 10:30 | 29.27127 | 70.22596 | 31696 ft | 467 kts | 243° |
| 2026-04-26 10:31 | 29.23951 | 70.16106 | 31708 ft | 467 kts | 243° |
| 2026-04-26 10:31 | 29.20780 | 70.09632 | 31697 ft | 466 kts | 242° |
| 2026-04-26 10:32 | 29.17622 | 70.03199 | 31707 ft | 467 kts | 242° |
| 2026-04-26 10:32 | 29.14444 | 69.96732 | 31707 ft | 466 kts | 242° |
| 2026-04-26 10:33 | 29.11243 | 69.90265 | 31714 ft | 468 kts | 242° |
| 2026-04-26 10:33 | 29.08035 | 69.83797 | 31715 ft | 466 kts | 242° |
| 2026-04-26 10:34 | 29.04849 | 69.77356 | 31713 ft | 465 kts | 242° |
| 2026-04-26 10:34 | 29.01666 | 69.70922 | 31714 ft | 465 kts | 242° |
| 2026-04-26 10:35 | 28.98500 | 69.64532 | 31722 ft | 465 kts | 242° |
| 2026-04-26 10:35 | 28.95312 | 69.58107 | 31721 ft | 465 kts | 242° |
| 2026-04-26 10:36 | 28.92120 | 69.51685 | 31718 ft | 465 kts | 242° |
| 2026-04-26 10:36 | 28.88938 | 69.45294 | 31710 ft | 463 kts | 242° |
| 2026-04-26 10:37 | 28.85773 | 69.38946 | 31710 ft | 463 kts | 242° |
| 2026-04-26 10:37 | 28.82611 | 69.32615 | 31710 ft | 463 kts | 242° |
| 2026-04-26 10:38 | 28.79421 | 69.26235 | 31711 ft | 463 kts | 242° |
| 2026-04-26 10:38 | 28.76230 | 69.19866 | 31705 ft | 463 kts | 242° |
| 2026-04-26 10:39 | 28.73035 | 69.13497 | 31691 ft | 463 kts | 241° |
| 2026-04-26 10:39 | 28.69840 | 69.07178 | 31691 ft | 464 kts | 241° |
| 2026-04-26 10:40 | 28.66619 | 69.00809 | 31688 ft | 464 kts | 241° |
| 2026-04-26 10:40 | 28.63404 | 68.94440 | 31680 ft | 464 kts | 241° |
| 2026-04-26 10:41 | 28.60189 | 68.88072 | 31677 ft | 464 kts | 241° |
| 2026-04-26 10:41 | 28.56967 | 68.81698 | 31660 ft | 466 kts | 241° |
| 2026-04-26 10:42 | 28.53753 | 68.75351 | 31658 ft | 466 kts | 241° |
| 2026-04-26 10:42 | 28.50517 | 68.68970 | 31646 ft | 466 kts | 241° |
| 2026-04-26 10:43 | 28.47277 | 68.62593 | 31646 ft | 466 kts | 241° |
| 2026-04-26 10:43 | 28.44032 | 68.56213 | 31642 ft | 466 kts | 241° |
| 2026-04-26 10:44 | 28.40784 | 68.49841 | 31645 ft | 467 kts | 241° |
| 2026-04-26 10:44 | 28.37521 | 68.43446 | 31634 ft | 468 kts | 241° |
| 2026-04-26 10:45 | 28.34273 | 68.37090 | 31634 ft | 468 kts | 241° |
| 2026-04-26 10:45 | 28.31001 | 68.30700 | 31636 ft | 469 kts | 241° |
| 2026-04-26 10:46 | 28.27700 | 68.24301 | 31636 ft | 470 kts | 241° |
| 2026-04-26 10:46 | 28.24404 | 68.17910 | 31644 ft | 469 kts | 241° |
| 2026-04-26 10:47 | 28.21136 | 68.11562 | 31639 ft | 465 kts | 241° |
| 2026-04-26 10:47 | 28.17897 | 68.05272 | 31638 ft | 465 kts | 241° |
| 2026-04-26 10:48 | 28.14633 | 67.98943 | 31641 ft | 465 kts | 241° |
| 2026-04-26 10:48 | 28.11366 | 67.92617 | 31642 ft | 465 kts | 241° |
| 2026-04-26 10:49 | 28.08097 | 67.86299 | 31643 ft | 465 kts | 241° |
| 2026-04-26 10:49 | 28.04825 | 67.79984 | 31647 ft | 465 kts | 241° |
| 2026-04-26 10:50 | 28.02102 | 67.74734 | 31651 ft | 465 kts | 241° |
| 2026-04-26 10:50 | 27.98293 | 67.67405 | 31650 ft | 465 kts | 241° |
| 2026-04-26 10:51 | 27.93377 | 67.57963 | 31658 ft | 465 kts | 241° |
| 2026-04-26 10:51 | 27.91731 | 67.54807 | 31834 ft | 465 kts | 241° |
| 2026-04-26 10:52 | 27.90087 | 67.51657 | 32144 ft | 466 kts | 242° |
| 2026-04-26 10:52 | 27.88439 | 67.48506 | 32493 ft | 465 kts | 242° |
| 2026-04-26 10:52 | 27.86811 | 67.45411 | 32858 ft | 463 kts | 242° |
| 2026-04-26 10:52 | 27.85170 | 67.42293 | 33247 ft | 461 kts | 242° |
| 2026-04-26 10:53 | 27.83533 | 67.39180 | 33622 ft | 460 kts | 242° |
| 2026-04-26 10:53 | 27.80274 | 67.32972 | 33722 ft | 459 kts | 242° |
| 2026-04-26 10:54 | 27.75404 | 67.23691 | 33777 ft | 458 kts | 242° |
| 2026-04-26 10:54 | 27.72150 | 67.17504 | 33775 ft | 457 kts | 242° |
| 2026-04-26 10:55 | 27.68927 | 67.11384 | 33804 ft | 457 kts | 242° |
| 2026-04-26 10:55 | 27.66226 | 67.06260 | 33806 ft | 457 kts | 242° |
| 2026-04-26 10:56 | 27.62427 | 66.99065 | 33827 ft | 456 kts | 242° |
| 2026-04-26 10:56 | 27.59177 | 66.92921 | 33827 ft | 456 kts | 242° |
| 2026-04-26 10:57 | 27.55918 | 66.86766 | 33826 ft | 460 kts | 241° |
| 2026-04-26 10:57 | 27.52644 | 66.80590 | 33832 ft | 463 kts | 240° |
| 2026-04-26 10:58 | 27.49337 | 66.74367 | 33852 ft | 464 kts | 241° |
| 2026-04-26 10:58 | 27.46012 | 66.68119 | 33835 ft | 465 kts | 241° |
| 2026-04-26 10:59 | 27.42672 | 66.61888 | 33838 ft | 466 kts | 241° |
| 2026-04-26 10:59 | 27.39328 | 66.55644 | 33846 ft | 465 kts | 241° |
| 2026-04-26 11:00 | 27.36010 | 66.49436 | 33851 ft | 466 kts | 241° |
| 2026-04-26 11:00 | 27.32665 | 66.43184 | 33850 ft | 466 kts | 241° |
| 2026-04-26 11:01 | 27.29318 | 66.36935 | 33829 ft | 467 kts | 241° |
| 2026-04-26 11:01 | 27.25964 | 66.30686 | 33825 ft | 466 kts | 241° |
| 2026-04-26 11:02 | 27.22632 | 66.24484 | 33806 ft | 467 kts | 241° |
| 2026-04-26 11:02 | 27.19276 | 66.18245 | 33814 ft | 467 kts | 240° |
| 2026-04-26 11:03 | 27.15912 | 66.12003 | 33804 ft | 467 kts | 240° |
| 2026-04-26 11:03 | 27.12543 | 66.05760 | 33803 ft | 467 kts | 240° |
| 2026-04-26 11:04 | 27.09175 | 65.99528 | 33791 ft | 467 kts | 240° |
| 2026-04-26 11:04 | 27.05805 | 65.93301 | 33791 ft | 466 kts | 240° |
| 2026-04-26 11:05 | 27.02467 | 65.87149 | 33793 ft | 464 kts | 240° |
| 2026-04-26 11:05 | 26.99098 | 65.80981 | 33790 ft | 464 kts | 240° |
| 2026-04-26 11:06 | 26.96303 | 65.75852 | 33789 ft | 463 kts | 240° |
| 2026-04-26 11:06 | 26.92378 | 65.68638 | 33771 ft | 464 kts | 240° |
| 2026-04-26 11:07 | 26.89039 | 65.62514 | 33775 ft | 464 kts | 240° |
| 2026-04-26 11:07 | 26.85678 | 65.56355 | 33776 ft | 463 kts | 240° |
| 2026-04-26 11:08 | 26.82320 | 65.50212 | 33775 ft | 463 kts | 240° |
| 2026-04-26 11:08 | 26.79526 | 65.45105 | 33776 ft | 463 kts | 240° |
| 2026-04-26 11:09 | 26.76162 | 65.38966 | 33777 ft | 463 kts | 240° |
| 2026-04-26 11:09 | 26.72795 | 65.32829 | 33763 ft | 462 kts | 240° |
| 2026-04-26 11:10 | 26.68875 | 65.25695 | 33766 ft | 465 kts | 240° |
| 2026-04-26 11:10 | 26.66055 | 65.20569 | 33770 ft | 467 kts | 240° |
| 2026-04-26 11:11 | 26.62641 | 65.14373 | 33768 ft | 468 kts | 240° |
| 2026-04-26 11:11 | 26.59220 | 65.08180 | 33765 ft | 468 kts | 240° |
| 2026-04-26 11:12 | 26.55783 | 65.01996 | 33768 ft | 468 kts | 240° |
| 2026-04-26 11:12 | 26.52358 | 64.95823 | 33767 ft | 468 kts | 240° |
| 2026-04-26 11:13 | 26.48957 | 64.89690 | 33772 ft | 467 kts | 240° |
| 2026-04-26 11:13 | 26.45546 | 64.83537 | 33772 ft | 467 kts | 240° |
| 2026-04-26 11:14 | 26.42118 | 64.77365 | 33760 ft | 467 kts | 240° |
| 2026-04-26 11:14 | 26.38695 | 64.71212 | 33762 ft | 467 kts | 240° |
| 2026-04-26 11:15 | 26.35266 | 64.65057 | 33767 ft | 467 kts | 240° |
| 2026-04-26 11:15 | 26.31836 | 64.58907 | 33766 ft | 467 kts | 240° |
| 2026-04-26 11:16 | 26.28426 | 64.52802 | 33764 ft | 467 kts | 240° |
| 2026-04-26 11:16 | 26.24994 | 64.46666 | 33759 ft | 467 kts | 240° |
| 2026-04-26 11:17 | 26.21550 | 64.40516 | 33765 ft | 468 kts | 240° |
| 2026-04-26 11:17 | 26.18102 | 64.34370 | 33768 ft | 467 kts | 241° |
| 2026-04-26 11:18 | 26.14657 | 64.28245 | 33762 ft | 466 kts | 240° |
| 2026-04-26 11:18 | 26.11225 | 64.22177 | 33764 ft | 466 kts | 240° |
| 2026-04-26 11:19 | 26.07777 | 64.16070 | 33768 ft | 466 kts | 241° |
| 2026-04-26 11:19 | 26.04331 | 64.09960 | 33768 ft | 466 kts | 241° |
| 2026-04-26 11:20 | 26.00885 | 64.03856 | 33768 ft | 465 kts | 240° |
| 2026-04-26 11:20 | 25.97480 | 63.97835 | 33765 ft | 463 kts | 240° |
| 2026-04-26 11:21 | 25.94056 | 63.91785 | 33764 ft | 462 kts | 240° |
| 2026-04-26 11:21 | 25.90628 | 63.85738 | 33762 ft | 462 kts | 240° |
| 2026-04-26 11:22 | 25.87203 | 63.79704 | 33766 ft | 462 kts | 240° |
| 2026-04-26 11:22 | 25.83771 | 63.73666 | 33756 ft | 462 kts | 240° |
| 2026-04-26 11:23 | 25.80358 | 63.67668 | 33757 ft | 462 kts | 240° |
| 2026-04-26 11:23 | 25.76925 | 63.61643 | 33749 ft | 462 kts | 240° |
| 2026-04-26 11:24 | 25.73488 | 63.55620 | 33748 ft | 462 kts | 240° |
| 2026-04-26 11:24 | 25.70038 | 63.49591 | 33747 ft | 462 kts | 240° |
| 2026-04-26 11:25 | 25.66579 | 63.43578 | 33747 ft | 462 kts | 240° |
| 2026-04-26 11:25 | 25.63138 | 63.37586 | 33747 ft | 460 kts | 240° |
| 2026-04-26 11:26 | 25.59726 | 63.31639 | 33743 ft | 460 kts | 240° |
| 2026-04-26 11:26 | 25.56296 | 63.25665 | 33744 ft | 460 kts | 240° |
| 2026-04-26 11:27 | 25.52858 | 63.19687 | 33740 ft | 460 kts | 240° |
| 2026-04-26 11:27 | 25.49423 | 63.13720 | 33741 ft | 460 kts | 240° |
| 2026-04-26 11:28 | 25.45976 | 63.07741 | 33741 ft | 460 kts | 239° |
| 2026-04-26 11:28 | 25.42554 | 63.01814 | 33740 ft | 461 kts | 239° |
| 2026-04-26 11:29 | 25.39081 | 62.95805 | 33744 ft | 465 kts | 239° |
| 2026-04-26 11:29 | 25.35597 | 62.89785 | 33747 ft | 465 kts | 239° |
| 2026-04-26 11:30 | 25.32698 | 62.84781 | 33749 ft | 465 kts | 239° |
| 2026-04-26 11:30 | 25.28617 | 62.77747 | 33748 ft | 465 kts | 239° |
| 2026-04-26 11:31 | 25.25142 | 62.71777 | 33752 ft | 465 kts | 239° |
| 2026-04-26 11:31 | 25.21633 | 62.65777 | 33755 ft | 465 kts | 239° |
| 2026-04-26 11:32 | 25.18130 | 62.59777 | 33754 ft | 465 kts | 239° |
| 2026-04-26 11:32 | 25.14626 | 62.53770 | 33754 ft | 465 kts | 239° |
| 2026-04-26 11:33 | 25.11149 | 62.47815 | 33753 ft | 464 kts | 239° |
| 2026-04-26 11:33 | 25.07652 | 62.41833 | 33756 ft | 464 kts | 239° |
| 2026-04-26 11:34 | 25.04150 | 62.35852 | 33752 ft | 464 kts | 239° |
| 2026-04-26 11:34 | 25.00643 | 62.29869 | 33752 ft | 464 kts | 239° |
| 2026-04-26 11:35 | 24.97130 | 62.23882 | 33755 ft | 467 kts | 239° |
| 2026-04-26 11:35 | 24.93618 | 62.17904 | 33755 ft | 468 kts | 239° |
| 2026-04-26 11:36 | 24.90079 | 62.11889 | 33753 ft | 468 kts | 239° |
| 2026-04-26 11:36 | 24.86532 | 62.05870 | 33754 ft | 468 kts | 239° |
| 2026-04-26 11:37 | 24.82986 | 61.99858 | 33756 ft | 468 kts | 239° |
| 2026-04-26 11:37 | 24.79456 | 61.93896 | 33755 ft | 468 kts | 238° |
| 2026-04-26 11:38 | 24.75895 | 61.87903 | 33757 ft | 467 kts | 238° |
| 2026-04-26 11:38 | 24.72346 | 61.81921 | 33758 ft | 467 kts | 238° |
| 2026-04-26 11:39 | 24.68799 | 61.75939 | 33753 ft | 467 kts | 238° |
| 2026-04-26 11:39 | 24.65271 | 61.69994 | 33753 ft | 467 kts | 238° |
| 2026-04-26 11:40 | 24.61721 | 61.64019 | 33758 ft | 467 kts | 238° |
| 2026-04-26 11:40 | 24.58166 | 61.58046 | 33757 ft | 467 kts | 238° |
| 2026-04-26 11:42 | 24.43854 | 61.34066 | 33760 ft | 471 kts | 238° |
| 2026-04-26 11:43 | 24.40264 | 61.28071 | 33762 ft | 470 kts | 239° |
| 2026-04-26 11:43 | 24.37189 | 61.21854 | 33768 ft | 465 kts | 253° |
| 2026-04-26 11:44 | 24.35639 | 61.14981 | 33768 ft | 464 kts | 260° |
| 2026-04-26 11:44 | 24.34412 | 61.08031 | 33770 ft | 464 kts | 260° |
| 2026-04-26 11:45 | 24.33077 | 61.01102 | 33762 ft | 464 kts | 259° |
| 2026-04-26 11:45 | 24.31662 | 60.94189 | 33767 ft | 464 kts | 259° |
| 2026-04-26 11:46 | 24.30236 | 60.87332 | 33768 ft | 464 kts | 258° |
| 2026-04-26 11:46 | 24.28798 | 60.80430 | 33767 ft | 464 kts | 258° |
| 2026-04-26 11:47 | 24.27359 | 60.73530 | 33763 ft | 465 kts | 259° |
| 2026-04-26 11:47 | 24.25916 | 60.66621 | 33766 ft | 465 kts | 259° |
| 2026-04-26 11:48 | 24.24480 | 60.59759 | 33771 ft | 465 kts | 259° |
| 2026-04-26 11:48 | 24.23029 | 60.52846 | 33770 ft | 465 kts | 259° |
| 2026-04-26 11:49 | 24.21577 | 60.45941 | 33764 ft | 465 kts | 259° |
| 2026-04-26 11:49 | 24.20119 | 60.39030 | 33767 ft | 466 kts | 259° |
| 2026-04-26 11:50 | 24.18662 | 60.32167 | 33777 ft | 466 kts | 259° |
| 2026-04-26 11:50 | 24.17182 | 60.25265 | 33774 ft | 466 kts | 259° |
| 2026-04-26 11:51 | 24.15709 | 60.18361 | 33774 ft | 466 kts | 259° |
| 2026-04-26 11:51 | 24.14236 | 60.11447 | 33771 ft | 467 kts | 260° |
| 2026-04-26 11:52 | 24.12771 | 60.04576 | 33777 ft | 467 kts | 260° |
| 2026-04-26 11:52 | 24.11291 | 59.97652 | 33777 ft | 467 kts | 260° |
| 2026-04-26 11:53 | 24.09807 | 59.90733 | 33777 ft | 467 kts | 260° |
| 2026-04-26 11:54 | 24.07578 | 59.80369 | 33773 ft | 466 kts | 261° |
| 2026-04-26 11:54 | 24.06103 | 59.73529 | 33774 ft | 465 kts | 261° |
| 2026-04-26 11:55 | 24.04617 | 59.66647 | 33776 ft | 465 kts | 261° |
| 2026-04-26 11:55 | 24.03127 | 59.59771 | 33780 ft | 465 kts | 261° |
| 2026-04-26 11:56 | 24.01637 | 59.52908 | 33776 ft | 463 kts | 261° |
| 2026-04-26 11:56 | 24.00156 | 59.46107 | 33779 ft | 463 kts | 261° |
| 2026-04-26 11:57 | 23.98645 | 59.39260 | 33782 ft | 463 kts | 261° |
| 2026-04-26 11:57 | 23.97138 | 59.32416 | 33787 ft | 463 kts | 261° |
| 2026-04-26 11:58 | 23.95638 | 59.25580 | 33782 ft | 462 kts | 261° |
| 2026-04-26 11:58 | 23.94202 | 59.18793 | 33781 ft | 460 kts | 264° |
| 2026-04-26 11:59 | 23.94008 | 59.11928 | 33784 ft | 448 kts | 283° |
| 2026-04-26 11:59 | 23.95967 | 59.05568 | 33784 ft | 442 kts | 297° |
| 2026-04-26 12:00 | 23.98687 | 58.99552 | 33784 ft | 441 kts | 298° |
| 2026-04-26 12:00 | 24.01369 | 58.93569 | 33797 ft | 441 kts | 297° |
| 2026-04-26 12:01 | 24.03978 | 58.87518 | 33788 ft | 440 kts | 297° |
| 2026-04-26 12:01 | 24.06556 | 58.81446 | 33785 ft | 440 kts | 297° |
| 2026-04-26 12:02 | 24.09129 | 58.75364 | 33785 ft | 440 kts | 297° |
| 2026-04-26 12:02 | 24.11680 | 58.69328 | 33788 ft | 440 kts | 297° |
| 2026-04-26 12:03 | 24.14250 | 58.63250 | 33788 ft | 440 kts | 297° |
| 2026-04-26 12:03 | 24.16826 | 58.57170 | 33788 ft | 440 kts | 297° |
| 2026-04-26 12:04 | 24.19403 | 58.51092 | 33795 ft | 440 kts | 297° |
| 2026-04-26 12:04 | 24.21958 | 58.45060 | 33787 ft | 439 kts | 296° |
| 2026-04-26 12:05 | 24.24523 | 58.38996 | 33788 ft | 438 kts | 296° |
| 2026-04-26 12:05 | 24.27082 | 58.32938 | 33790 ft | 438 kts | 296° |
| 2026-04-26 12:06 | 24.29640 | 58.26875 | 33790 ft | 438 kts | 296° |
| 2026-04-26 12:06 | 24.32179 | 58.20848 | 33791 ft | 438 kts | 296° |
| 2026-04-26 12:07 | 24.34731 | 58.14782 | 33790 ft | 438 kts | 296° |
| 2026-04-26 12:07 | 24.37276 | 58.08724 | 33798 ft | 437 kts | 296° |
| 2026-04-26 12:08 | 24.39816 | 58.02671 | 33792 ft | 437 kts | 296° |
| 2026-04-26 12:08 | 24.42334 | 57.96660 | 33791 ft | 437 kts | 296° |
| 2026-04-26 12:09 | 24.44868 | 57.90604 | 33791 ft | 436 kts | 296° |
| 2026-04-26 12:09 | 24.47392 | 57.84558 | 33793 ft | 435 kts | 296° |
| 2026-04-26 12:10 | 24.49887 | 57.78504 | 33796 ft | 435 kts | 295° |
| 2026-04-26 12:10 | 24.52237 | 57.72426 | 33796 ft | 436 kts | 294° |
| 2026-04-26 12:11 | 24.54560 | 57.66277 | 33793 ft | 436 kts | 294° |
| 2026-04-26 12:11 | 24.56881 | 57.60139 | 33793 ft | 435 kts | 294° |
| 2026-04-26 12:12 | 24.59202 | 57.54010 | 33793 ft | 435 kts | 294° |
| 2026-04-26 12:12 | 24.61511 | 57.47913 | 33796 ft | 435 kts | 294° |
| 2026-04-26 12:13 | 24.63829 | 57.41781 | 33798 ft | 435 kts | 294° |
| 2026-04-26 12:13 | 24.66145 | 57.35643 | 33796 ft | 434 kts | 294° |
| 2026-04-26 12:13 | 24.67289 | 57.32589 | 33568 ft | 429 kts | 294° |
| 2026-04-26 12:14 | 24.68411 | 57.29584 | 32950 ft | 421 kts | 293° |
| 2026-04-26 12:14 | 24.69519 | 57.26617 | 32312 ft | 421 kts | 293° |
| 2026-04-26 12:14 | 24.70637 | 57.23625 | 31710 ft | 424 kts | 292° |
| 2026-04-26 12:14 | 24.71747 | 57.20656 | 31117 ft | 428 kts | 291° |
| 2026-04-26 12:15 | 24.72885 | 57.17609 | 30522 ft | 433 kts | 291° |
| 2026-04-26 12:15 | 24.74033 | 57.14534 | 29915 ft | 437 kts | 291° |
| 2026-04-26 12:15 | 24.75192 | 57.11427 | 29224 ft | 441 kts | 290° |
| 2026-04-26 12:15 | 24.76360 | 57.08293 | 28568 ft | 444 kts | 290° |
| 2026-04-26 12:16 | 24.77532 | 57.05147 | 27946 ft | 446 kts | 290° |
| 2026-04-26 12:16 | 24.78711 | 57.01980 | 27325 ft | 448 kts | 290° |
| 2026-04-26 12:16 | 24.79877 | 56.98845 | 26673 ft | 450 kts | 290° |
| 2026-04-26 12:16 | 24.81066 | 56.95648 | 25975 ft | 452 kts | 290° |
| 2026-04-26 12:17 | 24.82259 | 56.92434 | 25278 ft | 454 kts | 290° |
| 2026-04-26 12:17 | 24.83459 | 56.89202 | 24574 ft | 457 kts | 290° |
| 2026-04-26 12:17 | 24.84659 | 56.85969 | 23869 ft | 456 kts | 290° |
| 2026-04-26 12:17 | 24.85854 | 56.82746 | 23149 ft | 453 kts | 289° |
| 2026-04-26 12:18 | 24.87037 | 56.79555 | 22356 ft | 448 kts | 290° |
| 2026-04-26 12:18 | 24.88209 | 56.76388 | 21630 ft | 444 kts | 290° |
| 2026-04-26 12:18 | 24.89366 | 56.73259 | 20947 ft | 440 kts | 290° |
| 2026-04-26 12:18 | 24.90501 | 56.70187 | 20272 ft | 436 kts | 290° |
| 2026-04-26 12:19 | 24.91638 | 56.67108 | 19606 ft | 433 kts | 291° |
| 2026-04-26 12:19 | 24.92767 | 56.64045 | 18930 ft | 429 kts | 291° |
| 2026-04-26 12:19 | 24.93887 | 56.61008 | 18283 ft | 426 kts | 291° |
| 2026-04-26 12:19 | 24.94997 | 56.57998 | 17559 ft | 422 kts | 292° |
| 2026-04-26 12:20 | 24.96267 | 56.55099 | 16886 ft | 418 kts | 298° |
| 2026-04-26 12:20 | 24.97750 | 56.52350 | 16280 ft | 415 kts | 301° |
| 2026-04-26 12:20 | 24.99309 | 56.49694 | 15687 ft | 411 kts | 302° |
| 2026-04-26 12:20 | 25.00861 | 56.47116 | 15107 ft | 409 kts | 302° |
| 2026-04-26 12:21 | 25.02431 | 56.44513 | 14538 ft | 405 kts | 302° |
| 2026-04-26 12:21 | 25.03975 | 56.41936 | 13967 ft | 401 kts | 302° |
| 2026-04-26 12:21 | 25.05497 | 56.39378 | 13373 ft | 397 kts | 301° |
| 2026-04-26 12:21 | 25.07001 | 56.36837 | 12761 ft | 394 kts | 301° |
| 2026-04-26 12:22 | 25.08488 | 56.34315 | 12214 ft | 391 kts | 301° |
| 2026-04-26 12:22 | 25.09957 | 56.31812 | 11707 ft | 386 kts | 300° |
| 2026-04-26 12:22 | 25.11026 | 56.29123 | 11707 ft | 381 kts | 283° |
| 2026-04-26 12:22 | 25.11446 | 56.26250 | 11586 ft | 384 kts | 275° |
| 2026-04-26 12:23 | 25.11653 | 56.23328 | 11241 ft | 380 kts | 274° |
| 2026-04-26 12:23 | 25.11871 | 56.20398 | 10885 ft | 382 kts | 275° |
| 2026-04-26 12:23 | 25.12149 | 56.17579 | 10542 ft | 368 kts | 276° |
| 2026-04-26 12:23 | 25.12485 | 56.14855 | 10196 ft | 348 kts | 278° |
| 2026-04-26 12:24 | 25.12841 | 56.12299 | 9846 ft | 326 kts | 279° |
| 2026-04-26 12:24 | 25.13198 | 56.09900 | 9461 ft | 308 kts | 279° |
| 2026-04-26 12:24 | 25.13547 | 56.07624 | 9087 ft | 293 kts | 279° |
| 2026-04-26 12:25 | 25.14208 | 56.03386 | 8346 ft | 271 kts | 280° |
| 2026-04-26 12:25 | 25.14530 | 56.01338 | 7805 ft | 270 kts | 281° |
| 2026-04-26 12:25 | 25.14847 | 55.99320 | 7346 ft | 266 kts | 281° |
| 2026-04-26 12:25 | 25.15162 | 55.97317 | 6884 ft | 262 kts | 281° |
| 2026-04-26 12:26 | 25.15467 | 55.95374 | 6428 ft | 259 kts | 281° |
| 2026-04-26 12:26 | 25.15776 | 55.93418 | 5958 ft | 259 kts | 281° |
| 2026-04-26 12:26 | 25.16083 | 55.91469 | 5479 ft | 256 kts | 281° |
| 2026-04-26 12:26 | 25.16384 | 55.89550 | 5006 ft | 251 kts | 281° |
| 2026-04-26 12:27 | 25.16680 | 55.87667 | 4540 ft | 247 kts | 281° |
| 2026-04-26 12:27 | 25.16973 | 55.85797 | 4143 ft | 249 kts | 282° |
| 2026-04-26 12:27 | 25.17270 | 55.83910 | 3784 ft | 250 kts | 281° |
| 2026-04-26 12:27 | 25.17569 | 55.82004 | 3436 ft | 252 kts | 282° |
| 2026-04-26 12:28 | 25.17863 | 55.80122 | 3118 ft | 246 kts | 282° |
| 2026-04-26 12:28 | 25.18172 | 55.78289 | 3014 ft | 248 kts | 288° |
| 2026-04-26 12:28 | 25.18838 | 55.76601 | 3016 ft | 230 kts | 301° |
| 2026-04-26 12:28 | 25.19646 | 55.75097 | 3008 ft | 227 kts | 303° |
| 2026-04-26 12:29 | 25.20476 | 55.73616 | 3012 ft | 226 kts | 303° |
| 2026-04-26 12:29 | 25.21258 | 55.72121 | 3008 ft | 224 kts | 297° |
| 2026-04-26 12:29 | 25.22483 | 55.68982 | 3017 ft | 219 kts | 303° |
| 2026-04-26 12:30 | 25.23312 | 55.67557 | 2979 ft | 222 kts | 305° |
| 2026-04-26 12:30 | 25.24160 | 55.66164 | 2703 ft | 210 kts | 305° |
| 2026-04-26 12:30 | 25.24942 | 55.64885 | 2438 ft | 190 kts | 304° |
| 2026-04-26 12:31 | 25.26362 | 55.62561 | 1992 ft | 181 kts | 306° |
| 2026-04-26 12:31 | 25.27056 | 55.61450 | 1744 ft | 170 kts | 306° |
| 2026-04-26 12:31 | 25.27746 | 55.60414 | 1502 ft | 166 kts | 309° |
| 2026-04-26 12:31 | 25.28442 | 55.59400 | 1367 ft | 166 kts | 311° |
| 2026-04-26 12:32 | 25.29150 | 55.58407 | 1188 ft | 163 kts | 308° |
| 2026-04-26 12:32 | 25.29824 | 55.57413 | 1040 ft | 161 kts | 306° |
| 2026-04-26 12:32 | 25.31047 | 55.55352 | 566 ft | 164 kts | 302° |
| 2026-04-26 12:33 | 25.31658 | 55.54283 | 357 ft | 164 kts | 302° |
| 2026-04-26 12:33 | 25.32255 | 55.53244 | 182 ft | 160 kts | 300° |
| 2026-04-26 12:33 | 25.32815 | 55.52254 | 119 ft | 132 kts | 303° |
| 2026-04-26 12:33 | 25.33203 | 55.51584 | 123 ft | 75 kts | 302° |
| 2026-04-26 12:34 | 25.33436 | 55.51177 | 118 ft | 46 kts | 300° |
| 2026-04-26 12:34 | 25.33409 | 55.50982 | 122 ft | 16 kts | 217° |
| 2026-04-26 12:34 | 25.33356 | 55.50940 | 119 ft | 6 kts | 214° |
| 2026-04-26 12:34 | 25.33326 | 55.50918 | 119 ft | 6 kts | 213° |
| 2026-04-26 12:35 | 25.33276 | 55.50882 | 120 ft | 11 kts | 213° |
| 2026-04-26 12:35 | 25.33190 | 55.50849 | 120 ft | 14 kts | 166° |
| 2026-04-26 12:35 | 25.33110 | 55.50930 | 119 ft | 16 kts | 124° |
| 2026-04-26 12:35 | 25.33050 | 55.51046 | 119 ft | 18 kts | 121° |
| 2026-04-26 12:36 | 25.32988 | 55.51154 | 120 ft | 15 kts | 122° |
| 2026-04-26 12:36 | 25.32934 | 55.51238 | 119 ft | 9 kts | 142° |
| 2026-04-26 12:36 | 25.32890 | 55.51240 | 118 ft | 8 kts | 193° |
| 2026-04-26 12:36 | 25.32839 | 55.51212 | 119 ft | 8 kts | 211° |
| 2026-04-26 12:37 | 25.32773 | 55.51166 | 120 ft | 14 kts | 212° |
| 2026-04-26 12:37 | 25.32675 | 55.51098 | 120 ft | 16 kts | 212° |
| 2026-04-26 12:37 | 25.32617 | 55.51079 | 119 ft | 5 kts | 169° |
| 2026-04-26 12:37 | 25.32596 | 55.51095 | 120 ft | 3 kts | 136° |
| 2026-04-26 12:38 | 25.32582 | 55.51115 | 118 ft | 4 kts | 125° |
| 2026-04-26 12:38 | 25.32571 | 55.51133 | 118 ft | 0 kts | 123° |